createdAt,value
2023-06-22T00:02:54.377Z,16.50
2023-06-22T00:07:57.292Z,15.70
2023-06-22T00:13:00.224Z,16.50
2023-06-22T00:18:03.843Z,16.50
2023-06-22T00:23:11.105Z,16.80
2023-06-22T00:28:13.894Z,16.90
2023-06-22T00:33:17.697Z,16.60
2023-06-22T00:38:21.880Z,15.90
2023-06-22T00:43:24.677Z,17.90
2023-06-22T00:48:27.939Z,17.40
2023-06-22T00:53:34.643Z,18.20
2023-06-22T00:58:39.003Z,18.60
2023-06-22T01:03:41.903Z,17.40
2023-06-22T01:08:52.881Z,14.20
2023-06-22T01:14:07.824Z,14.30
2023-06-22T01:19:28.851Z,14.80
2023-06-22T01:24:43.036Z,14.60
2023-06-22T01:29:46.806Z,14.90
2023-06-22T01:34:50.837Z,14.60
2023-06-22T01:39:56.216Z,15.20
2023-06-22T01:44:59.782Z,15.50
2023-06-22T01:50:04.917Z,15.40
2023-06-22T01:55:09.336Z,15.90
2023-06-22T02:00:20.149Z,14.80
2023-06-22T02:05:26.385Z,14.40
2023-06-22T02:10:30.718Z,13.60
2023-06-22T02:15:34.822Z,13.80
2023-06-22T02:20:42.553Z,13.80
2023-06-22T02:25:45.630Z,12.90
2023-06-22T02:30:48.434Z,14.00
2023-06-22T02:35:53.365Z,12.90
2023-06-22T02:40:56.170Z,12.80
2023-06-22T02:45:59.627Z,13.00
2023-06-22T02:51:02.434Z,12.40
2023-06-22T02:56:08.499Z,13.20
2023-06-22T03:01:11.464Z,12.20
2023-06-22T03:06:15.442Z,12.50
2023-06-22T03:11:18.419Z,12.70
2023-06-22T03:16:21.195Z,12.70
2023-06-22T03:21:27.310Z,11.00
2023-06-22T03:31:36.550Z,11.10
2023-06-22T03:36:39.407Z,11.20
2023-06-22T03:41:42.315Z,10.60
2023-06-22T03:46:45.174Z,10.30
2023-06-22T03:51:48.788Z,10.40
2023-06-22T03:56:51.647Z,9.30
2023-06-22T04:01:54.488Z,9.80
2023-06-22T04:06:57.294Z,8.80
2023-06-22T04:12:00.151Z,8.50
2023-06-22T04:17:03.003Z,8.00
2023-06-22T04:22:08.235Z,7.50
2023-06-22T04:27:11.118Z,7.80
2023-06-22T04:32:14.018Z,7.10
2023-06-22T04:37:17.010Z,7.10
2023-06-22T04:42:20.327Z,7.10
2023-06-22T04:47:23.156Z,5.80
2023-06-22T04:52:26.059Z,7.30
2023-06-22T04:57:34.014Z,6.60
2023-06-22T05:02:36.948Z,6.60
2023-06-22T05:07:44.927Z,6.20
2023-06-22T05:12:48.323Z,5.80
2023-06-22T05:17:52.958Z,6.70
2023-06-22T05:22:55.824Z,6.60
2023-06-22T05:27:58.834Z,7.10
2023-06-22T05:33:01.825Z,6.90
2023-06-22T05:38:04.641Z,7.30
2023-06-22T05:43:07.599Z,8.30
2023-06-22T05:48:10.429Z,8.00
2023-06-22T05:53:13.354Z,7.80
2023-06-22T05:58:16.496Z,7.20
2023-06-22T06:03:19.306Z,7.90
2023-06-22T06:08:22.530Z,8.00
2023-06-22T06:13:25.778Z,8.90
2023-06-22T06:18:28.615Z,8.90
2023-06-22T06:23:31.506Z,9.80
2023-06-22T06:28:35.046Z,10.00
2023-06-22T06:33:38.184Z,9.40
2023-06-22T06:38:47.495Z,11.30
2023-06-22T06:43:53.803Z,12.00
2023-06-22T06:48:56.783Z,10.60
2023-06-22T06:53:59.620Z,11.40
2023-06-22T06:59:02.795Z,8.40
2023-06-22T07:04:05.779Z,8.40
2023-06-22T07:09:15.317Z,8.80
2023-06-22T07:14:18.322Z,9.40
2023-06-22T07:19:32.713Z,8.60
2023-06-22T07:24:35.665Z,8.50
2023-06-22T07:29:40.908Z,9.90
2023-06-22T07:34:45.407Z,9.10
2023-06-22T07:39:54.934Z,10.00
2023-06-22T07:44:57.848Z,9.20
2023-06-22T07:50:02.823Z,9.70
2023-06-22T07:55:06.185Z,9.90
2023-06-22T08:00:16.018Z,9.40
2023-06-22T08:05:22.470Z,9.70
2023-06-22T08:10:37.676Z,9.90
2023-06-22T08:15:43.707Z,9.80
2023-06-22T08:20:46.903Z,8.20
2023-06-22T08:25:51.437Z,9.60
2023-06-22T08:30:54.542Z,10.50
2023-06-22T08:36:02.538Z,10.40
2023-06-22T08:41:05.581Z,9.90
2023-06-22T08:46:08.503Z,9.70
2023-06-22T08:51:11.400Z,8.80
2023-06-22T08:56:14.551Z,9.30
2023-06-22T09:01:17.992Z,8.50
2023-06-22T09:06:23.509Z,8.00
2023-06-22T09:11:28.909Z,7.10
2023-06-22T09:16:32.024Z,7.30
2023-06-22T09:21:35.458Z,6.00
2023-06-22T09:26:46.290Z,6.30
2023-06-22T09:31:49.278Z,5.50
2023-06-22T09:36:54.398Z,5.30
2023-06-22T09:42:01.208Z,4.60
2023-06-22T09:47:04.826Z,4.80
2023-06-22T09:52:09.163Z,5.30
2023-06-22T09:57:13.368Z,5.20
2023-06-22T10:02:18.880Z,5.00
2023-06-22T10:07:22.196Z,5.10
2023-06-22T10:12:24.966Z,5.50
2023-06-22T10:17:29.882Z,5.20
2023-06-22T10:22:32.804Z,4.50
2023-06-22T10:27:36.716Z,4.60
2023-06-22T10:32:40.312Z,4.60
2023-06-22T10:37:47.483Z,4.80
2023-06-22T10:42:51.349Z,5.00
2023-06-22T10:47:54.365Z,5.00
2023-06-22T10:53:00.339Z,4.10
2023-06-22T10:58:04.518Z,3.80
2023-06-22T11:03:11.671Z,4.10
2023-06-22T11:08:16.122Z,3.80
2023-06-22T11:13:19.773Z,4.20
2023-06-22T11:18:24.328Z,4.00
2023-06-22T11:23:28.943Z,3.60
2023-06-22T11:28:32.020Z,2.90
2023-06-22T11:33:35.152Z,3.00
2023-06-22T11:38:40.176Z,2.70
2023-06-22T11:48:46.732Z,2.30
2023-06-22T11:53:50.196Z,2.40
2023-06-22T11:58:53.412Z,2.00
2023-06-22T12:03:56.359Z,2.70
2023-06-22T12:08:59.620Z,2.30
2023-06-22T12:14:03.709Z,2.40
2023-06-22T12:19:06.668Z,2.20
2023-06-22T12:24:09.486Z,2.20
2023-06-22T12:29:12.405Z,2.50
2023-06-22T12:34:17.025Z,2.60
2023-06-22T12:39:19.810Z,2.00
2023-06-22T12:44:22.596Z,3.00
2023-06-22T12:49:25.586Z,2.40
2023-06-22T12:54:31.379Z,2.30
2023-06-22T12:59:36.072Z,2.60
2023-06-22T13:04:39.017Z,2.50
2023-06-22T13:09:41.977Z,2.60
2023-06-22T13:14:44.869Z,2.70
2023-06-22T13:19:48.149Z,2.80
2023-06-22T13:24:51.003Z,2.30
2023-06-22T13:29:54.805Z,2.60
2023-06-22T13:34:57.624Z,2.80
2023-06-22T13:40:00.943Z,2.60
2023-06-22T13:45:04.931Z,2.50
2023-06-22T13:50:13.936Z,2.50
2023-06-22T13:55:17.114Z,2.60
2023-06-22T14:00:20.915Z,2.30
2023-06-22T14:05:23.922Z,2.80
2023-06-22T14:10:27.553Z,2.40
2023-06-22T14:15:30.671Z,2.50
2023-06-22T14:20:34.024Z,2.60
2023-06-22T14:25:37.151Z,2.10
2023-06-22T14:30:40.119Z,2.30
2023-06-22T14:35:43.017Z,2.40
2023-06-22T14:41:05.958Z,2.40
2023-06-22T14:46:11.636Z,2.20
2023-06-22T14:51:17.353Z,2.50
2023-06-22T14:56:20.722Z,2.50
2023-06-22T15:01:26.727Z,2.80
2023-06-22T15:06:29.723Z,2.20
2023-06-22T15:11:33.318Z,2.30
2023-06-22T15:16:36.147Z,2.30
2023-06-22T15:21:40.459Z,2.20
2023-06-22T15:26:43.477Z,2.30
2023-06-22T15:31:48.572Z,2.30
2023-06-22T15:36:53.142Z,2.40
2023-06-22T15:41:56.969Z,2.30
2023-06-22T15:47:00.216Z,2.20
2023-06-22T15:52:03.563Z,2.50
2023-06-22T15:57:06.656Z,2.80
2023-06-22T16:02:10.604Z,2.50
2023-06-22T16:07:14.501Z,2.90
2023-06-22T16:12:18.213Z,2.40
2023-06-22T16:17:23.858Z,2.50
2023-06-22T16:22:26.726Z,2.50
2023-06-22T16:27:33.903Z,2.30
2023-06-22T16:32:36.967Z,2.30
2023-06-22T16:37:39.842Z,2.30
2023-06-22T16:42:47.046Z,2.40
2023-06-22T16:47:51.735Z,2.70
2023-06-22T16:52:54.574Z,3.00
2023-06-22T16:57:59.574Z,2.30
2023-06-22T17:03:07.210Z,2.60
2023-06-22T17:08:15.833Z,2.50
2023-06-22T17:13:23.343Z,2.30
2023-06-22T17:18:27.363Z,2.60
2023-06-22T17:23:32.624Z,2.50
2023-06-22T17:28:53.072Z,2.40
2023-06-22T17:33:59.312Z,3.50
2023-06-22T17:39:02.100Z,2.50
2023-06-22T17:44:09.002Z,2.40
2023-06-22T17:49:15.469Z,2.50
2023-06-22T17:54:18.347Z,2.40
2023-06-22T17:59:21.352Z,2.60
2023-06-22T18:04:26.249Z,2.50
2023-06-22T18:09:30.289Z,2.60
2023-06-22T18:14:35.564Z,2.70
2023-06-22T18:19:41.821Z,2.80
2023-06-22T18:24:45.713Z,3.30
2023-06-22T18:29:51.488Z,3.60
2023-06-22T18:39:58.571Z,3.00
2023-06-22T18:45:01.471Z,3.40
2023-06-22T18:50:09.657Z,3.10
2023-06-22T18:55:14.066Z,4.30
2023-06-22T19:00:31.634Z,3.60
2023-06-22T19:05:42.755Z,4.20
2023-06-22T19:10:45.722Z,3.30
2023-06-22T19:15:53.336Z,3.50
2023-06-22T19:21:12.054Z,3.60
2023-06-22T19:26:19.556Z,3.80
2023-06-22T19:31:24.953Z,2.90
2023-06-22T19:36:35.322Z,3.50
2023-06-22T19:41:38.439Z,3.60
2023-06-22T19:46:43.446Z,3.50
2023-06-22T19:51:46.413Z,3.50
2023-06-22T19:56:51.861Z,2.90
2023-06-22T20:01:54.801Z,3.20
2023-06-22T20:07:06.369Z,2.90
2023-06-22T20:12:24.636Z,4.40
2023-06-22T20:17:30.344Z,5.30
2023-06-22T20:22:46.627Z,3.40
2023-06-22T20:27:54.611Z,3.30
2023-06-22T20:32:57.571Z,3.30
2023-06-22T20:38:00.549Z,3.30
2023-06-22T20:43:03.649Z,3.60
2023-06-22T20:48:13.767Z,3.30
2023-06-22T20:53:18.920Z,3.60
2023-06-22T20:58:21.757Z,3.20
2023-06-22T21:03:24.630Z,3.30
2023-06-22T21:08:28.256Z,3.60
2023-06-22T21:13:31.483Z,3.90
2023-06-22T21:18:34.299Z,3.50
2023-06-22T21:23:37.150Z,3.40
2023-06-22T21:28:39.994Z,3.60
2023-06-22T21:33:42.970Z,3.50
2023-06-22T21:38:45.890Z,3.90
2023-06-22T21:43:49.838Z,3.30
2023-06-22T21:48:52.616Z,3.70
2023-06-22T21:53:55.552Z,3.60
2023-06-22T21:58:58.337Z,3.40
2023-06-22T22:04:01.211Z,3.50
2023-06-22T22:09:05.411Z,3.60
2023-06-22T22:14:09.940Z,3.80
2023-06-22T22:19:13.840Z,3.70
2023-06-22T22:24:16.630Z,3.60
2023-06-22T22:29:19.874Z,3.50
2023-06-22T22:34:22.789Z,4.20
2023-06-22T22:39:39.322Z,3.70
2023-06-22T22:44:42.900Z,4.00
2023-06-22T22:49:46.227Z,4.20
2023-06-22T22:54:49.475Z,4.10
2023-06-22T22:59:52.355Z,4.20
2023-06-22T23:05:00.078Z,4.00
2023-06-22T23:10:03.056Z,4.10
2023-06-22T23:15:08.222Z,3.70
2023-06-22T23:20:15.585Z,3.80
2023-06-22T23:25:18.898Z,4.20
2023-06-22T23:30:21.804Z,4.30
2023-06-22T23:35:24.660Z,4.40
2023-06-22T23:40:29.724Z,4.30
2023-06-22T23:45:32.814Z,4.30
2023-06-22T23:50:35.919Z,5.30
2023-06-22T23:55:39.336Z,4.60
